Time;durP1;ratioP1;P1;durP2;ratioP2;P2;SDS_P1;SDS_P2;PMS_P1;PMS_P2;Temp;Humidity;BMP_temperature;BMP_pressure;BME280_temperature;BME280_humidity;BME280_pressure;Samples;Min_cycle;Max_cycle;Signal;HPM_P1;HPM_P2
2022/10/28 00:00:56;;;;;;;6.22;2.78;;;19.50;61.80;;;;;;5014503;28;20216;-70
2022/10/28 00:03:24;;;;;;;2.50;2.30;;;19.50;61.90;;;;;;5013772;28;20296;-70
2022/10/28 00:05:53;;;;;;;4.80;2.60;;;19.50;62.00;;;;;;5031147;28;20208;-70
2022/10/28 00:08:20;;;;;;;3.40;2.28;;;19.50;62.20;;;;;;5014375;28;20201;-70
2022/10/28 00:10:47;;;;;;;3.08;2.63;;;19.50;62.00;;;;;;5014291;28;20231;-70
2022/10/28 00:13:14;;;;;;;4.22;2.25;;;19.50;62.20;;;;;;5031154;28;20197;-70
2022/10/28 00:15:41;;;;;;;2.75;2.42;;;19.50;62.20;;;;;;5030773;28;20201;-70
2022/10/28 00:18:10;;;;;;;3.42;2.67;;;19.50;63.10;;;;;;5013715;28;20200;-70
2022/10/28 00:20:38;;;;;;;3.17;2.30;;;19.50;62.30;;;;;;5014719;28;20623;-70
2022/10/28 00:23:05;;;;;;;4.00;2.58;;;19.50;62.30;;;;;;5013998;28;20231;-70
2022/10/28 00:25:32;;;;;;;3.30;2.40;;;19.50;62.20;;;;;;5014300;28;20204;-70
2022/10/28 00:27:59;;;;;;;3.83;2.50;;;19.40;62.20;;;;;;5014108;28;20201;-70
2022/10/28 00:33:03;;;;;;;3.90;2.78;;;19.50;62.20;;;;;;5076740;22;20223;-69
2022/10/28 00:35:30;;;;;;;3.13;2.30;;;19.40;62.00;;;;;;5075420;22;20314;-70
2022/10/28 00:37:58;;;;;;;2.75;2.10;;;19.40;62.10;;;;;;5053866;28;20199;-70
2022/10/28 00:40:25;;;;;;;2.55;2.22;;;19.40;62.00;;;;;;5053624;28;20217;-70
2022/10/28 00:42:52;;;;;;;2.55;2.35;;;19.40;62.90;;;;;;5054164;28;20542;-70
2022/10/28 00:45:19;;;;;;;2.72;2.30;;;19.40;62.10;;;;;;5053624;28;20215;-70
2022/10/28 00:47:50;;;;;;;3.15;2.40;;;19.40;62.20;;;;;;5053364;28;20203;-70
2022/10/28 00:50:43;;;;;;;2.95;2.45;;;19.40;62.10;;;;;;5053522;28;20274;-70
2022/10/28 00:53:14;;;;;;;3.40;2.38;;;19.40;62.00;;;;;;5053365;28;20206;-71
2022/10/28 00:55:41;;;;;;;3.83;2.33;;;19.40;62.10;;;;;;5133596;22;20215;-68
2022/10/28 01:00:51;;;;;;;4.40;2.30;;;19.40;62.10;;;;;;4723608;22;20227;-70
2022/10/28 01:03:30;;;;;;;2.83;2.40;;;19.40;62.10;;;;;;5012295;28;20224;-70
2022/10/28 01:05:57;;;;;;;2.97;2.45;;;19.40;62.20;;;;;;5015008;28;20223;-70
2022/10/28 01:08:26;;;;;;;2.88;2.50;;;19.40;62.10;;;;;;5014871;28;20643;-70
2022/10/28 01:11:03;;;;;;;3.67;2.28;;;19.40;62.20;;;;;;5013579;28;20228;-70
2022/10/28 01:13:38;;;;;;;3.60;2.50;;;19.30;62.00;;;;;;5013552;28;20698;-70
2022/10/28 01:16:07;;;;;;;3.15;2.42;;;19.30;62.00;;;;;;5013471;28;20201;-70
2022/10/28 01:18:38;;;;;;;4.97;2.65;;;19.30;62.20;;;;;;5030014;28;20197;-70
2022/10/28 01:21:31;;;;;;;2.95;2.33;;;19.30;62.30;;;;;;5030095;28;20217;-70
2022/10/28 01:24:08;;;;;;;3.30;2.33;;;19.30;62.40;;;;;;5030728;28;20234;-70
2022/10/28 01:30:04;;;;;;;2.85;2.38;;;19.30;62.20;;;;;;5013656;28;20676;-65
2022/10/28 01:32:33;;;;;;;3.35;2.22;;;19.30;62.30;;;;;;4997050;28;20192;-67
2022/10/28 01:35:06;;;;;;;3.25;2.33;;;19.30;62.30;;;;;;4996776;28;20224;-67
2022/10/28 01:37:34;;;;;;;2.90;2.30;;;19.30;62.30;;;;;;4997089;28;20569;-67
2022/10/28 01:40:04;;;;;;;3.35;2.50;;;19.20;62.30;;;;;;4997535;28;20255;-67
2022/10/28 01:42:34;;;;;;;2.92;2.50;;;19.20;62.30;;;;;;4997770;28;20193;-67
2022/10/28 01:45:02;;;;;;;6.10;2.55;;;19.30;62.30;;;;;;4997639;28;20220;-67
2022/10/28 01:47:33;;;;;;;3.65;2.50;;;19.30;62.30;;;;;;4996899;28;20255;-67
2022/10/28 01:50:02;;;;;;;2.35;2.15;;;19.20;62.20;;;;;;4996925;28;20243;-67
2022/10/28 01:52:29;;;;;;;3.53;2.40;;;19.30;62.10;;;;;;5014567;28;20193;-67
2022/10/28 01:55:00;;;;;;;3.08;2.33;;;19.30;62.30;;;;;;4996498;28;20641;-67
2022/10/28 01:57:31;;;;;;;3.92;2.15;;;19.20;62.20;;;;;;4996567;28;20624;-67
2022/10/28 01:59:58;;;;;;;3.65;2.53;;;19.20;62.10;;;;;;5015286;28;20204;-67
2022/10/28 02:02:25;;;;;;;2.55;2.10;;;19.20;62.30;;;;;;5014406;28;20197;-67
2022/10/28 02:05:04;;;;;;;4.40;2.45;;;19.20;62.10;;;;;;4996635;28;20221;-68
2022/10/28 02:07:31;;;;;;;3.33;2.63;;;19.20;62.20;;;;;;4996174;28;20196;-68
2022/10/28 02:10:03;;;;;;;3.63;2.33;;;19.20;62.30;;;;;;4996364;28;20207;-68
2022/10/28 02:12:30;;;;;;;3.20;2.60;;;19.20;62.20;;;;;;4996385;28;20200;-68
2022/10/28 02:15:27;;;;;;;3.13;2.25;;;19.20;62.30;;;;;;4996213;28;20227;-68
2022/10/28 02:18:10;;;;;;;2.50;2.30;;;19.20;62.30;;;;;;4990121;28;20208;-68
2022/10/28 02:20:43;;;;;;;3.53;2.45;;;19.20;62.40;;;;;;4996176;28;20220;-68
2022/10/28 02:23:16;;;;;;;2.90;2.53;;;19.20;62.30;;;;;;4996111;28;20256;-68
2022/10/28 02:25:45;;;;;;;4.43;2.33;;;19.20;62.20;;;;;;4996414;28;20203;-68
2022/10/28 02:28:14;;;;;;;3.28;2.40;;;19.10;62.00;;;;;;4980163;28;20294;-68
2022/10/28 02:30:44;;;;;;;2.67;2.45;;;19.20;62.20;;;;;;4996839;28;20192;-68
2022/10/28 02:33:12;;;;;;;3.28;2.35;;;19.10;62.20;;;;;;5013677;28;20188;-68
2022/10/28 02:35:42;;;;;;;3.50;2.47;;;19.10;62.20;;;;;;5071296;22;20247;-68
2022/10/28 02:38:15;;;;;;;3.75;2.55;;;19.10;62.20;;;;;;5032766;28;20207;-68
2022/10/28 02:40:42;;;;;;;3.00;2.70;;;19.10;62.10;;;;;;5016972;28;20223;-68
2022/10/28 02:43:09;;;;;;;3.42;2.40;;;19.10;62.30;;;;;;5032250;28;20208;-67
2022/10/28 02:45:39;;;;;;;4.07;2.30;;;19.10;62.20;;;;;;5015896;28;20232;-68
2022/10/28 02:48:08;;;;;;;3.00;2.30;;;19.10;62.30;;;;;;5016747;28;20689;-68
2022/10/28 02:50:37;;;;;;;2.72;2.10;;;19.10;62.40;;;;;;5016850;28;20209;-68
2022/10/28 02:53:08;;;;;;;3.15;2.47;;;19.10;62.20;;;;;;5032241;28;20280;-67
2022/10/28 02:55:37;;;;;;;3.83;2.70;;;19.10;62.30;;;;;;5016847;28;20235;-68
2022/10/28 02:58:04;;;;;;;2.78;2.38;;;19.10;62.10;;;;;;5015542;28;20216;-68
2022/10/28 03:00:31;;;;;;;2.60;2.40;;;19.10;62.20;;;;;;5032084;28;20221;-68
2022/10/28 03:02:58;;;;;;;3.03;2.40;;;19.10;62.20;;;;;;5032620;28;20288;-67
2022/10/28 03:05:25;;;;;;;4.28;2.72;;;19.00;62.00;;;;;;5016863;28;20192;-68
2022/10/28 03:07:52;;;;;;;2.80;2.45;;;19.10;62.00;;;;;;5016002;28;20201;-67
2022/10/28 03:10:21;;;;;;;3.78;2.55;;;19.00;61.80;;;;;;5015466;28;20765;-68
2022/10/28 03:12:48;;;;;;;5.13;2.50;;;19.00;61.80;;;;;;5015550;28;20641;-68
2022/10/28 03:15:15;;;;;;;2.75;2.30;;;19.00;62.10;;;;;;5016538;28;20208;-68
2022/10/28 03:17:42;;;;;;;3.72;2.53;;;19.00;61.70;;;;;;5016463;28;20735;-67
2022/10/28 03:20:11;;;;;;;2.95;2.35;;;19.00;61.50;;;;;;5015803;28;20227;-68
2022/10/28 03:22:38;;;;;;;3.55;2.20;;;19.00;61.60;;;;;;5015881;28;20207;-68
2022/10/28 03:25:06;;;;;;;3.03;2.38;;;19.00;61.50;;;;;;5032087;28;20204;-67
2022/10/28 03:27:34;;;;;;;3.13;2.30;;;19.00;61.70;;;;;;5015852;28;20197;-68
2022/10/28 03:30:02;;;;;;;4.07;2.35;;;19.10;62.20;;;;;;5017655;28;20267;-68
2022/10/28 03:32:29;;;;;;;3.65;2.40;;;19.10;62.30;;;;;;5017175;28;20191;-68
2022/10/28 03:34:56;;;;;;;3.83;2.20;;;19.10;62.20;;;;;;5032317;28;20205;-68
2022/10/28 03:37:23;;;;;;;2.40;2.20;;;19.10;62.10;;;;;;5015824;28;20181;-68
2022/10/28 03:39:50;;;;;;;2.55;2.35;;;19.20;62.00;;;;;;5032241;28;20320;-68
2022/10/28 03:42:18;;;;;;;2.63;2.30;;;19.30;61.90;;;;;;5015544;28;20223;-68
2022/10/28 03:44:46;;;;;;;3.90;2.53;;;19.30;61.70;;;;;;5015807;28;20199;-68
2022/10/28 03:47:13;;;;;;;3.25;2.10;;;19.30;61.60;;;;;;5016838;28;20204;-68
2022/10/28 03:49:40;;;;;;;2.85;2.50;;;19.30;61.40;;;;;;5032016;28;20244;-68
2022/10/28 03:52:07;;;;;;;3.70;2.47;;;19.30;61.40;;;;;;5148626;22;20223;-68
2022/10/28 03:54:34;;;;;;;4.82;2.42;;;19.40;61.30;;;;;;5034931;28;20224;-68
2022/10/28 03:57:01;;;;;;;3.10;2.00;;;19.40;61.40;;;;;;5035409;28;20200;-68
2022/10/28 03:59:28;;;;;;;4.05;2.33;;;19.30;61.20;;;;;;5034721;28;20588;-68
2022/10/28 04:01:56;;;;;;;2.30;2.05;;;19.40;61.30;;;;;;5034920;28;20231;-68
2022/10/28 04:04:23;;;;;;;2.85;2.20;;;19.40;61.30;;;;;;5036008;28;20219;-68
2022/10/28 04:06:50;;;;;;;2.90;2.40;;;19.40;61.10;;;;;;5034925;28;20200;-68
2022/10/28 04:09:18;;;;;;;2.28;2.13;;;19.40;61.00;;;;;;5036197;28;20200;-68
2022/10/28 04:11:47;;;;;;;3.72;2.40;;;19.40;61.10;;;;;;5034944;28;20653;-68
2022/10/28 04:14:14;;;;;;;3.05;2.10;;;19.40;60.90;;;;;;5035439;28;20258;-68
2022/10/28 04:16:41;;;;;;;2.58;2.38;;;19.40;60.90;;;;;;5035155;28;20203;-68
2022/10/28 04:19:09;;;;;;;2.38;2.15;;;19.40;61.00;;;;;;5035995;28;20275;-68
2022/10/28 04:21:37;;;;;;;3.22;2.45;;;19.30;60.90;;;;;;5034248;28;20299;-68
2022/10/28 04:24:04;;;;;;;2.80;2.17;;;19.40;61.20;;;;;;5017733;28;20220;-68
2022/10/28 04:26:31;;;;;;;4.43;2.50;;;19.40;60.90;;;;;;5034863;28;20281;-68
2022/10/28 04:28:58;;;;;;;2.50;2.28;;;19.30;60.80;;;;;;5033934;28;20200;-68
2022/10/28 04:31:25;;;;;;;3.58;2.50;;;19.30;60.80;;;;;;5033707;28;20207;-68
2022/10/28 04:33:52;;;;;;;3.28;2.20;;;19.30;60.90;;;;;;5033859;28;20688;-68
2022/10/28 04:36:21;;;;;;;3.63;2.72;;;19.30;60.90;;;;;;5035049;28;20188;-68
2022/10/28 04:38:50;;;;;;;4.20;2.83;;;19.30;61.00;;;;;;5033770;28;20575;-68
2022/10/28 04:41:17;;;;;;;3.50;2.60;;;19.30;61.20;;;;;;5033656;28;20220;-68
2022/10/28 04:43:44;;;;;;;3.15;2.67;;;19.30;61.90;;;;;;5035028;28;20212;-68
2022/10/28 04:46:11;;;;;;;5.72;2.75;;;19.30;61.70;;;;;;5034217;28;20208;-69
2022/10/28 04:48:38;;;;;;;3.70;2.60;;;19.30;62.00;;;;;;5033478;28;20219;-70
2022/10/28 04:51:05;;;;;;;3.70;2.50;;;19.20;61.70;;;;;;5034647;28;20534;-69
2022/10/28 04:53:34;;;;;;;5.65;2.70;;;19.30;62.00;;;;;;5033636;28;20216;-69
2022/10/28 04:56:01;;;;;;;3.00;2.22;;;19.30;62.30;;;;;;5033306;28;20200;-69
2022/10/28 04:58:27;;;;;;;4.65;2.60;;;19.30;62.30;;;;;;5033390;28;20612;-69
2022/10/28 05:00:54;;;;;;;3.95;2.25;;;19.30;62.10;;;;;;5033891;28;20196;-69
2022/10/28 05:03:22;;;;;;;4.40;2.67;;;19.30;62.20;;;;;;5034389;28;20192;-70
2022/10/28 05:05:50;;;;;;;3.30;2.22;;;19.30;62.50;;;;;;5033691;28;20200;-70
2022/10/28 05:08:17;;;;;;;4.35;2.60;;;19.30;62.50;;;;;;5033873;28;20204;-69
2022/10/28 05:10:48;;;;;;;4.35;2.70;;;19.30;62.60;;;;;;5032920;28;20204;-69
2022/10/28 05:13:16;;;;;;;4.70;2.47;;;19.30;62.60;;;;;;5034003;28;20188;-69
2022/10/28 05:15:43;;;;;;;3.28;2.35;;;19.30;62.40;;;;;;5032854;28;20206;-68
2022/10/28 05:18:10;;;;;;;3.10;2.65;;;19.30;62.60;;;;;;5033233;28;20200;-68
2022/10/28 05:20:37;;;;;;;2.40;2.20;;;19.30;62.70;;;;;;5032814;28;20298;-69
2022/10/28 05:23:03;;;;;;;3.53;2.40;;;19.40;62.70;;;;;;5033160;28;20243;-69
2022/10/28 05:25:31;;;;;;;4.28;2.50;;;19.40;62.50;;;;;;5032772;28;20274;-69
2022/10/28 05:28:00;;;;;;;4.18;2.40;;;19.40;62.50;;;;;;5032808;28;20203;-69
2022/10/28 05:30:27;;;;;;;3.38;2.40;;;19.30;62.40;;;;;;5032843;28;20278;-69
2022/10/28 05:32:59;;;;;;;3.13;2.50;;;19.30;62.30;;;;;;5032854;28;20196;-69
2022/10/28 05:35:26;;;;;;;6.70;2.80;;;19.30;62.30;;;;;;5032667;28;20224;-69
2022/10/28 05:37:53;;;;;;;4.18;2.70;;;19.30;62.20;;;;;;5032636;28;20208;-69
2022/10/28 05:40:22;;;;;;;2.70;2.50;;;19.30;62.30;;;;;;5032976;28;20291;-69
2022/10/28 05:42:49;;;;;;;3.20;1.95;;;19.30;62.20;;;;;;5032834;28;20752;-69
2022/10/28 05:45:17;;;;;;;3.67;2.42;;;19.30;62.20;;;;;;5032608;28;20314;-69
2022/10/28 05:47:45;;;;;;;2.25;2.10;;;19.30;62.10;;;;;;5032685;28;20204;-69
2022/10/28 05:50:12;;;;;;;2.47;2.25;;;19.30;61.80;;;;;;5032758;28;20554;-69
2022/10/28 05:52:39;;;;;;;2.90;2.50;;;19.30;61.70;;;;;;5032584;28;20258;-69
2022/10/28 05:55:07;;;;;;;3.25;2.30;;;19.30;61.50;;;;;;5032776;28;20243;-69
2022/10/28 05:57:34;;;;;;;5.35;2.60;;;19.30;61.40;;;;;;5032438;28;20196;-69
2022/10/28 06:00:04;;;;;;;3.47;2.50;;;19.30;61.40;;;;;;5032461;28;20203;-69
2022/10/28 06:02:40;;;;;;;2.78;2.10;;;19.30;61.20;;;;;;5033908;28;20208;-69
2022/10/28 06:05:29;;;;;;;2.33;2.13;;;19.30;61.30;;;;;;5033802;28;20218;-69
2022/10/28 06:07:56;;;;;;;5.28;2.40;;;19.30;61.30;;;;;;5032516;28;20215;-69
2022/10/28 06:10:23;;;;;;;3.72;2.50;;;19.30;61.20;;;;;;5032519;28;20200;-69
2022/10/28 06:12:50;;;;;;;2.95;2.53;;;19.30;61.10;;;;;;5034530;28;20705;-69
2022/10/28 06:15:17;;;;;;;4.15;2.30;;;19.30;61.40;;;;;;5036748;28;20266;-69
2022/10/28 06:17:49;;;;;;;2.92;2.50;;;19.30;61.60;;;;;;5036815;28;20188;-69
2022/10/28 06:20:16;;;;;;;4.07;2.50;;;19.30;61.30;;;;;;5036442;28;20191;-69
2022/10/28 06:22:47;;;;;;;5.75;2.58;;;19.40;61.20;;;;;;5036321;28;20247;-69
2022/10/28 06:25:15;;;;;;;4.05;2.40;;;19.40;61.30;;;;;;5036190;28;20314;-69
2022/10/28 06:27:42;;;;;;;2.97;2.35;;;19.40;61.00;;;;;;5036480;28;20196;-69
2022/10/28 06:30:10;;;;;;;3.75;2.70;;;19.40;61.10;;;;;;5037930;28;20183;-69
2022/10/28 06:32:37;;;;;;;3.47;2.60;;;19.40;61.00;;;;;;5036507;28;20658;-69
2022/10/28 06:35:06;;;;;;;2.60;2.40;;;19.40;60.90;;;;;;5036451;28;20220;-69
2022/10/28 06:37:33;;;;;;;4.78;2.78;;;19.40;60.90;;;;;;5036893;28;20208;-69
2022/10/28 06:40:00;;;;;;;2.95;2.58;;;19.40;61.60;;;;;;5037553;28;20194;-69
2022/10/28 06:42:27;;;;;;;2.72;2.20;;;19.40;60.80;;;;;;5036311;28;20219;-69
2022/10/28 06:44:54;;;;;;;2.50;2.30;;;19.40;60.70;;;;;;5037049;28;20220;-69
2022/10/28 06:47:22;;;;;;;3.75;2.35;;;19.40;60.70;;;;;;5036614;28;20206;-69
2022/10/28 06:49:49;;;;;;;3.08;2.47;;;19.40;60.70;;;;;;5036551;28;20697;-69
2022/10/28 06:52:17;;;;;;;3.35;2.38;;;19.40;60.80;;;;;;5036320;28;20228;-69
2022/10/28 06:54:44;;;;;;;2.80;2.20;;;19.40;60.70;;;;;;5036203;28;20598;-69
2022/10/28 06:57:11;;;;;;;4.30;2.47;;;19.40;60.80;;;;;;5036847;28;20589;-69
2022/10/28 06:59:38;;;;;;;2.92;2.40;;;19.40;60.60;;;;;;5036195;28;20227;-69
2022/10/28 07:02:05;;;;;;;3.60;2.40;;;19.40;60.70;;;;;;5036628;28;20280;-69
2022/10/28 07:04:33;;;;;;;2.97;2.42;;;19.40;60.80;;;;;;5035791;28;20281;-69
2022/10/28 07:07:00;;;;;;;3.33;2.30;;;19.40;60.70;;;;;;5036544;28;20222;-69
2022/10/28 07:09:28;;;;;;;5.40;2.72;;;19.40;60.70;;;;;;5035698;28;20200;-69
2022/10/28 07:11:55;;;;;;;3.20;2.60;;;19.50;60.70;;;;;;5035792;28;20200;-69
2022/10/28 07:14:23;;;;;;;4.50;2.60;;;19.40;60.60;;;;;;5036258;28;20235;-69
2022/10/28 07:16:50;;;;;;;5.47;2.92;;;19.40;60.40;;;;;;5035744;28;20604;-69
2022/10/28 07:19:17;;;;;;;4.25;2.50;;;19.50;60.50;;;;;;5036303;28;20577;-69
2022/10/28 07:21:44;;;;;;;3.30;2.72;;;19.40;60.40;;;;;;5035450;28;20216;-69
2022/10/28 07:24:11;;;;;;;4.18;2.60;;;19.50;60.60;;;;;;5018230;28;20338;-69
2022/10/28 07:26:40;;;;;;;3.20;2.60;;;19.50;60.50;;;;;;5036710;28;20195;-69
2022/10/28 07:29:06;;;;;;;2.90;2.35;;;19.50;60.50;;;;;;5035363;28;20204;-69
2022/10/28 07:31:33;;;;;;;3.20;2.30;;;19.60;60.70;;;;;;5035351;28;20200;-70
2022/10/28 07:34:00;;;;;;;3.90;2.45;;;19.60;60.60;;;;;;5035213;28;20593;-70
2022/10/28 07:36:28;;;;;;;4.32;2.67;;;19.60;60.50;;;;;;5036294;28;20196;-69
2022/10/28 07:38:54;;;;;;;3.60;2.70;;;19.70;60.50;;;;;;5035013;28;20635;-69
2022/10/28 07:41:21;;;;;;;2.50;2.30;;;19.70;60.50;;;;;;5035168;28;20196;-69
2022/10/28 07:43:50;;;;;;;3.10;2.65;;;19.70;60.40;;;;;;5035236;28;20248;-69
2022/10/28 07:46:17;;;;;;;5.13;2.70;;;19.70;60.20;;;;;;5036165;28;20283;-69
2022/10/28 07:48:45;;;;;;;2.90;2.40;;;19.70;60.20;;;;;;5035302;28;20536;-69
2022/10/28 07:51:13;;;;;;;3.08;2.75;;;19.80;60.20;;;;;;5034657;28;20733;-69
2022/10/28 07:53:40;;;;;;;3.58;2.50;;;19.70;60.00;;;;;;5034860;28;20301;-69
2022/10/28 07:56:08;;;;;;;3.25;2.95;;;19.70;60.00;;;;;;5034782;28;20317;-69
2022/10/28 07:58:36;;;;;;;6.47;2.67;;;19.80;60.10;;;;;;5034852;28;20643;-69
2022/10/28 08:01:05;;;;;;;3.92;2.90;;;19.70;60.00;;;;;;5034373;28;20204;-69
2022/10/28 08:03:32;;;;;;;3.03;2.50;;;19.80;60.10;;;;;;5035001;28;20651;-69
2022/10/28 08:06:00;;;;;;;5.35;2.80;;;19.80;60.10;;;;;;5035468;28;20224;-69
2022/10/28 08:08:27;;;;;;;3.45;3.00;;;19.80;60.20;;;;;;5034297;28;20196;-69
2022/10/28 08:10:54;;;;;;;4.35;3.25;;;19.80;60.20;;;;;;5034535;28;20197;-69
2022/10/28 08:13:22;;;;;;;4.65;2.63;;;19.80;60.20;;;;;;5035523;28;20196;-69
2022/10/28 08:15:52;;;;;;;3.78;2.40;;;19.80;60.30;;;;;;5034194;28;20200;-69
2022/10/28 08:18:20;;;;;;;3.33;2.67;;;19.80;61.10;;;;;;5034134;28;20200;-69
2022/10/28 08:20:48;;;;;;;3.72;2.75;;;19.80;60.30;;;;;;5017942;28;20204;-69
2022/10/28 08:23:15;;;;;;;5.43;2.75;;;19.90;60.40;;;;;;5034178;28;20218;-69
2022/10/28 08:25:49;;;;;;;2.55;2.20;;;19.90;60.30;;;;;;5033999;28;20268;-69
2022/10/28 08:28:16;;;;;;;3.17;2.63;;;19.80;60.20;;;;;;5035540;28;20212;-69
2022/10/28 08:30:44;;;;;;;4.38;2.90;;;19.90;60.20;;;;;;5035850;28;20196;-69
2022/10/28 08:33:11;;;;;;;3.03;2.35;;;19.90;60.20;;;;;;5034257;28;20554;-69
2022/10/28 08:35:40;;;;;;;3.03;2.80;;;19.90;60.20;;;;;;5032765;28;20254;-69
2022/10/28 08:38:08;;;;;;;5.28;2.83;;;19.90;60.20;;;;;;5035357;28;20713;-69
2022/10/28 08:40:39;;;;;;;3.17;2.72;;;19.90;60.10;;;;;;5033555;28;20569;-69
2022/10/28 08:43:11;;;;;;;3.83;2.70;;;20.00;60.90;;;;;;5034032;28;20216;-69
2022/10/28 08:45:41;;;;;;;2.63;2.42;;;20.00;60.00;;;;;;5033607;28;20258;-69
2022/10/28 08:48:13;;;;;;;4.30;2.88;;;20.00;60.00;;;;;;5033815;28;20188;-69
2022/10/28 08:50:44;;;;;;;3.30;2.63;;;20.00;59.90;;;;;;5034193;28;20208;-69
2022/10/28 08:53:13;;;;;;;3.13;2.60;;;20.10;59.90;;;;;;5033419;28;20200;-69
2022/10/28 08:55:42;;;;;;;3.75;2.78;;;20.10;59.80;;;;;;5034597;28;20215;-69
2022/10/28 08:58:11;;;;;;;5.28;3.10;;;20.10;59.80;;;;;;5033513;28;20192;-69
2022/10/28 09:00:39;;;;;;;3.97;2.63;;;20.10;59.80;;;;;;5033439;28;20642;-69
2022/10/28 09:03:14;;;;;;;4.53;2.97;;;20.20;59.80;;;;;;5033498;28;20618;-69
2022/10/28 09:05:44;;;;;;;4.13;2.65;;;20.20;59.70;;;;;;5033456;28;20596;-69
2022/10/28 09:08:14;;;;;;;3.85;2.47;;;20.20;59.70;;;;;;5033465;28;20287;-69
2022/10/28 09:10:49;;;;;;;3.28;2.80;;;20.20;59.60;;;;;;5035053;28;20180;-69
2022/10/28 09:13:20;;;;;;;3.45;2.72;;;20.30;59.60;;;;;;5033522;28;20196;-69
2022/10/28 09:15:49;;;;;;;4.65;2.63;;;20.30;59.50;;;;;;5033818;28;20630;-69
2022/10/28 09:18:18;;;;;;;4.47;2.97;;;20.30;59.40;;;;;;5035347;28;20199;-69
2022/10/28 09:20:52;;;;;;;4.68;2.67;;;20.30;59.40;;;;;;5035137;28;20200;-69
2022/10/28 09:23:22;;;;;;;3.33;2.58;;;20.30;59.30;;;;;;5034375;28;20624;-69
2022/10/28 09:26:05;;;;;;;4.57;2.92;;;20.40;59.40;;;;;;5034449;28;20184;-69
2022/10/28 09:28:41;;;;;;;5.60;3.10;;;20.40;59.30;;;;;;5033169;28;20200;-69
2022/10/28 09:31:11;;;;;;;3.25;2.67;;;20.40;59.30;;;;;;5033123;28;20222;-69
2022/10/28 09:33:45;;;;;;;3.80;2.60;;;20.40;59.30;;;;;;5034357;28;20210;-69
2022/10/28 09:36:17;;;;;;;4.55;2.60;;;20.40;59.20;;;;;;5033061;28;20203;-69
2022/10/28 09:38:43;;;;;;;3.83;2.60;;;20.40;59.30;;;;;;5032842;28;20188;-69
2022/10/28 09:41:11;;;;;;;2.63;2.40;;;20.40;59.20;;;;;;5032804;28;20203;-69
2022/10/28 09:43:40;;;;;;;4.05;2.50;;;20.50;59.30;;;;;;5032619;28;20231;-69
2022/10/28 09:46:10;;;;;;;2.60;2.40;;;20.50;59.30;;;;;;5033720;28;20192;-69
2022/10/28 09:48:37;;;;;;;2.83;2.40;;;20.50;59.30;;;;;;5033537;28;20191;-69
2022/10/28 09:51:04;;;;;;;2.90;2.33;;;20.50;59.00;;;;;;5032551;28;20197;-69
2022/10/28 09:53:39;;;;;;;3.45;2.25;;;20.50;59.00;;;;;;5032469;28;20240;-69
2022/10/28 09:56:06;;;;;;;3.00;2.45;;;20.50;59.00;;;;;;5032885;28;20282;-69
2022/10/28 09:58:34;;;;;;;3.40;2.33;;;20.60;59.00;;;;;;5032462;28;20204;-69
2022/10/28 10:01:02;;;;;;;2.97;2.53;;;20.60;58.90;;;;;;5032771;28;20215;-69
2022/10/28 10:03:29;;;;;;;3.88;2.55;;;20.60;58.90;;;;;;5032334;28;20226;-69
2022/10/28 10:05:56;;;;;;;2.92;2.45;;;20.70;58.90;;;;;;5032181;28;20290;-69
2022/10/28 10:08:23;;;;;;;3.00;2.25;;;20.70;58.70;;;;;;5032677;28;20200;-69
2022/10/28 10:10:53;;;;;;;5.28;2.75;;;20.80;58.70;;;;;;5033465;28;20593;-69
2022/10/28 10:13:21;;;;;;;3.63;2.35;;;20.80;58.70;;;;;;5034086;28;20638;-69
2022/10/28 10:15:51;;;;;;;4.72;2.50;;;20.90;58.40;;;;;;5032130;28;20677;-69
2022/10/28 10:18:20;;;;;;;2.70;2.38;;;21.00;58.20;;;;;;5032076;28;20685;-69
2022/10/28 10:20:49;;;;;;;4.13;3.00;;;21.00;58.00;;;;;;5033333;28;20184;-69
2022/10/28 10:23:22;;;;;;;4.13;2.90;;;21.10;57.90;;;;;;5033487;28;20666;-69
2022/10/28 10:25:56;;;;;;;3.42;2.42;;;21.10;57.90;;;;;;5032049;28;20223;-69
2022/10/28 10:28:24;;;;;;;4.32;2.72;;;21.10;57.80;;;;;;5032040;28;20279;-69
2022/10/28 10:30:52;;;;;;;2.90;2.60;;;21.10;57.70;;;;;;5032488;28;20291;-69
2022/10/28 10:33:21;;;;;;;3.53;3.03;;;21.10;57.60;;;;;;5032242;28;20550;-69
2022/10/28 10:35:53;;;;;;;5.45;2.90;;;21.20;57.60;;;;;;5032296;28;20196;-69
2022/10/28 10:38:20;;;;;;;6.05;2.92;;;21.20;57.70;;;;;;5032081;28;20196;-69
2022/10/28 10:40:48;;;;;;;4.18;3.03;;;21.20;57.80;;;;;;5032513;28;20211;-69
2022/10/28 10:43:22;;;;;;;3.58;2.63;;;21.20;57.70;;;;;;5031889;28;20219;-69
2022/10/28 10:45:52;;;;;;;3.92;2.58;;;21.20;57.70;;;;;;5031809;28;20235;-69
2022/10/28 10:48:19;;;;;;;2.45;2.00;;;21.20;57.70;;;;;;5031856;28;20196;-69
2022/10/28 10:50:46;;;;;;;2.53;2.33;;;21.20;57.60;;;;;;5031689;28;20200;-69
2022/10/28 10:53:21;;;;;;;3.67;2.70;;;21.20;57.60;;;;;;5031739;28;20200;-69
2022/10/28 10:55:53;;;;;;;4.05;2.70;;;21.20;57.60;;;;;;5033127;28;20192;-69
2022/10/28 10:58:23;;;;;;;3.95;2.67;;;21.20;57.60;;;;;;5031849;28;20204;-69
2022/10/28 11:00:50;;;;;;;3.08;2.20;;;21.20;57.60;;;;;;5035108;28;20200;-69
2022/10/28 11:03:18;;;;;;;3.10;2.35;;;21.20;57.60;;;;;;5035219;28;20266;-69
2022/10/28 11:05:50;;;;;;;2.78;2.40;;;21.20;57.60;;;;;;5018899;28;20629;-69
2022/10/28 11:08:29;;;;;;;2.38;2.17;;;21.20;57.60;;;;;;5035681;28;20196;-69
2022/10/28 11:11:13;;;;;;;2.85;2.30;;;21.20;57.60;;;;;;5035364;28;20282;-69
2022/10/28 11:13:41;;;;;;;3.38;2.67;;;21.20;57.70;;;;;;5035339;28;20247;-70
2022/10/28 11:16:18;;;;;;;2.97;2.20;;;21.20;57.70;;;;;;5035232;28;20246;-69
2022/10/28 11:18:46;;;;;;;3.67;2.67;;;21.20;57.80;;;;;;5035143;28;20650;-69
2022/10/28 11:21:27;;;;;;;2.92;2.47;;;21.20;57.80;;;;;;5034905;28;20204;-69
2022/10/28 11:24:22;;;;;;;2.58;2.38;;;21.20;57.70;;;;;;5036575;28;20600;-69
2022/10/28 11:26:52;;;;;;;4.03;2.58;;;21.20;57.60;;;;;;5035066;28;20183;-69
2022/10/28 11:29:20;;;;;;;5.50;2.63;;;21.20;57.60;;;;;;5034878;28;20203;-69
2022/10/28 11:32:11;;;;;;;2.70;2.50;;;21.30;57.60;;;;;;5034932;28;20246;-69
2022/10/28 11:35:00;;;;;;;3.80;2.50;;;21.30;57.50;;;;;;5035540;28;20557;-69
2022/10/28 11:37:34;;;;;;;3.13;2.35;;;21.30;57.50;;;;;;5035223;28;20204;-69
2022/10/28 11:40:09;;;;;;;3.03;2.40;;;21.30;57.40;;;;;;5035096;28;20232;-69
2022/10/28 11:42:41;;;;;;;2.97;2.33;;;21.30;58.00;;;;;;5034926;28;20200;-69
2022/10/28 11:45:12;;;;;;;3.08;2.25;;;21.30;57.40;;;;;;5035690;28;20239;-70
2022/10/28 11:47:56;;;;;;;4.13;2.63;;;21.30;57.30;;;;;;5036102;28;20618;-70
2022/10/28 11:50:35;;;;;;;3.90;2.58;;;21.40;57.40;;;;;;5035027;28;20253;-70
2022/10/28 11:53:21;;;;;;;2.40;2.20;;;21.40;57.40;;;;;;5035030;28;20653;-70
2022/10/28 11:55:52;;;;;;;2.22;2.03;;;21.40;57.50;;;;;;5034583;28;20273;-69
2022/10/28 11:58:22;;;;;;;2.78;2.33;;;21.40;57.40;;;;;;5036164;28;20255;-69
2022/10/28 12:00:56;;;;;;;4.28;2.60;;;21.30;57.20;;;;;;5036192;28;20184;-69
2022/10/28 12:03:51;;;;;;;3.30;2.35;;;21.40;57.40;;;;;;5034431;28;20212;-69
2022/10/28 12:06:21;;;;;;;2.53;2.33;;;21.40;57.20;;;;;;5031473;28;20216;-69
2022/10/28 12:09:02;;;;;;;3.15;2.30;;;21.40;57.20;;;;;;5034123;28;20203;-69
2022/10/28 12:11:36;;;;;;;2.55;2.35;;;21.40;57.10;;;;;;5035419;28;20286;-69
2022/10/28 12:14:07;;;;;;;2.42;2.08;;;21.40;57.10;;;;;;5034071;28;20266;-69
2022/10/28 12:16:39;;;;;;;3.10;2.33;;;21.40;57.10;;;;;;5033994;28;20593;-70
2022/10/28 12:19:10;;;;;;;3.30;2.33;;;21.50;57.10;;;;;;5034025;28;20193;-69
2022/10/28 12:21:39;;;;;;;3.95;3.00;;;21.50;57.10;;;;;;5034547;28;20196;-69
2022/10/28 12:24:10;;;;;;;4.13;2.47;;;21.50;57.20;;;;;;5035241;28;20212;-69
2022/10/28 12:26:39;;;;;;;2.45;2.20;;;21.50;57.10;;;;;;5034093;28;20611;-69
2022/10/28 12:29:10;;;;;;;2.80;2.22;;;21.50;57.00;;;;;;5035052;28;20288;-69
2022/10/28 12:31:42;;;;;;;3.42;2.30;;;21.50;57.00;;;;;;5035233;28;20268;-69
2022/10/28 12:34:11;;;;;;;2.05;1.92;;;21.50;57.00;;;;;;5035198;28;20709;-69
2022/10/28 12:36:40;;;;;;;2.30;2.10;;;21.60;57.10;;;;;;5033672;28;20196;-68
2022/10/28 12:39:11;;;;;;;3.20;2.30;;;21.60;57.00;;;;;;5033978;28;20246;-68
2022/10/28 12:41:47;;;;;;;2.80;2.50;;;21.60;56.90;;;;;;5035032;28;20180;-68
2022/10/28 12:44:15;;;;;;;3.75;2.30;;;21.60;57.00;;;;;;5033395;28;20334;-69
2022/10/28 12:46:50;;;;;;;2.95;2.05;;;21.60;57.00;;;;;;5033660;28;20662;-69
2022/10/28 12:49:20;;;;;;;3.05;2.40;;;21.60;56.90;;;;;;5033714;28;20191;-69
2022/10/28 12:51:47;;;;;;;2.17;2.00;;;21.60;56.80;;;;;;5033292;28;20250;-69
2022/10/28 12:54:18;;;;;;;3.42;2.25;;;21.70;56.80;;;;;;5033420;28;20220;-69
2022/10/28 12:56:51;;;;;;;2.47;2.10;;;21.70;56.80;;;;;;5033791;28;20194;-69
2022/10/28 12:59:22;;;;;;;2.10;1.90;;;21.70;56.90;;;;;;5033475;28;20254;-69
2022/10/28 13:01:51;;;;;;;3.25;2.10;;;21.70;56.80;;;;;;5033294;28;20196;-69
2022/10/28 13:04:18;;;;;;;2.67;2.10;;;21.70;56.80;;;;;;5033183;28;20224;-70
2022/10/28 13:07:09;;;;;;;2.60;2.00;;;21.70;56.80;;;;;;5033483;28;20298;-69
2022/10/28 13:09:44;;;;;;;2.95;2.20;;;21.70;56.90;;;;;;5033452;28;20654;-70